Terminal Aerodrome Forecast
Issued by NWS

Home | Current Version | Previous Version | Graphics & Text | Print | Product List | Glossary On
Versions: 1 2 3 4 5 6 7 8 9 10 11 12 13 14 15 16 17 18 19 20 21 22 23 24 25
000
FTUS43 KABR 190500
TAFPIR
TAF
KPIR 190540Z 1906/2006 33017G24KT P6SM OVC025
      TEMPO 1906/1909 5SM -RA BR BKN010
     FM190900 32022G32KT P6SM OVC030
     FM191400 32027G38KT P6SM SCT050
     FM200100 32017KT P6SM SKC=

USA.gov is the U.S. government's official web portal to all federal, state and local government web resources and services.